Time;durP1;ratioP1;P1;durP2;ratioP2;P2;SDS_P1;SDS_P2;PMS_P1;PMS_P2;Temp;Humidity;BMP_temperature;BMP_pressure;BME280_temperature;BME280_humidity;BME280_pressure;Samples;Min_cycle;Max_cycle;Signal;HPM_P1;HPM_P2
2022/12/25 00:02:21;;;;;;;;;;;;;;;;;;4452802;32;19969;-76
2022/12/25 00:04:46;;;;;;;;;;;;;;;;;;4453470;32;19960;-76
2022/12/25 00:07:11;;;;;;;;;;;;;;;;;;4451790;32;19985;-77
2022/12/25 00:09:36;;;;;;;;;;;;;;;;;;4451939;32;19936;-77
2022/12/25 00:12:01;;;;;;;;;;;;;;;;;;4453806;32;19947;-76
2022/12/25 00:14:27;;;;;;;;;;;;;;;;;;4451608;32;20317;-77
2022/12/25 00:16:52;;;;;;;;;;;;;;;;;;4453262;32;19951;-77
2022/12/25 00:19:17;;;;;;;;;;;;;;;;;;4455434;32;20004;-75
2022/12/25 00:21:42;;;;;;;;;;;;;;;;;;4458377;32;19932;-77
2022/12/25 00:24:07;;;;;;;;;;;;;;;;;;4458685;32;19965;-76
2022/12/25 00:26:32;;;;;;;;;;;;;;;;;;4458188;32;19932;-75
2022/12/25 00:28:57;;;;;;;;;;;;;;;;;;4460707;32;19933;-76
2022/12/25 00:31:22;;;;;;;;;;;;;;;;;;4459598;32;19955;-78
2022/12/25 00:33:47;;;;;;;;;;;;;;;;;;4462328;32;19956;-77
2022/12/25 00:36:13;;;;;;;;;;;;;;;;;;4458152;32;19998;-75
2022/12/25 00:38:38;;;;;;;;;;;;;;;;;;4452083;32;19932;-77
2022/12/25 00:41:04;;;;;;;;;;;;;;;;;;4451829;32;19948;-77
2022/12/25 00:43:30;;;;;;;;;;;;;;;;;;4454364;32;19937;-78
2022/12/25 00:45:55;;;;;;;;;;;;;;;;;;4454636;32;19985;-77
2022/12/25 00:48:20;;;;;;;;;;;;;;;;;;4453279;32;19944;-77
2022/12/25 00:50:45;;;;;;;;;;;;;;;;;;4453102;32;19967;-77
2022/12/25 00:53:10;;;;;;;;;;;;;;;;;;4451556;32;19936;-77
2022/12/25 00:55:35;;;;;;;;;;;;;;;;;;4451393;32;19940;-76
2022/12/25 00:58:00;;;;;;;;;;;;;;;;;;4452754;32;20310;-77
2022/12/25 01:00:25;;;;;;;;;;;;;;;;;;4452729;32;19936;-76
2022/12/25 01:02:51;;;;;;;;;;;;;;;;;;4452910;32;19946;-77
2022/12/25 01:05:16;;;;;;;;;;;;;;;;;;4452908;32;19959;-76
2022/12/25 01:07:41;;;;;;;;;;;;;;;;;;4452167;32;19932;-76
2022/12/25 01:10:21;;;;;;;;;;;;;;;;;;4452942;32;19940;-77
2022/12/25 01:12:46;;;;;;;;;;;;;;;;;;4452450;32;19941;-76
2022/12/25 01:15:11;;;;;;;;;;;;;;;;;;4452752;32;19932;-77
2022/12/25 01:17:37;;;;;;;;;;;;;;;;;;4452663;32;19955;-76
2022/12/25 01:20:02;;;;;;;;;;;;;;;;;;4451939;32;19959;-78
2022/12/25 01:22:27;;;;;;;;;;;;;;;;;;4451284;32;19936;-77
2022/12/25 01:24:52;;;;;;;;;;;;;;;;;;4452235;32;19932;-76
2022/12/25 01:27:17;;;;;;;;;;;;;;;;;;4454081;32;19941;-77
2022/12/25 01:29:42;;;;;;;;;;;;;;;;;;4451672;32;20315;-77
2022/12/25 01:32:07;;;;;;;;;;;;;;;;;;4452563;32;19947;-77
2022/12/25 01:34:32;;;;;;;;;;;;;;;;;;4451804;32;19955;-77
2022/12/25 01:36:57;;;;;;;;;;;;;;;;;;4452291;32;20275;-77
2022/12/25 01:39:22;;;;;;;;;;;;;;;;;;4451753;32;19951;-77
2022/12/25 01:41:48;;;;;;;;;;;;;;;;;;4450723;32;19999;-75
2022/12/25 01:44:13;;;;;;;;;;;;;;;;;;4452314;32;19933;-76
2022/12/25 01:46:38;;;;;;;;;;;;;;;;;;4452377;32;19932;-77
2022/12/25 01:49:03;;;;;;;;;;;;;;;;;;4451713;32;19965;-77
2022/12/25 01:51:28;;;;;;;;;;;;;;;;;;4452584;32;19933;-76
2022/12/25 01:53:53;;;;;;;;;;;;;;;;;;4451506;32;19951;-77
2022/12/25 01:56:18;;;;;;;;;;;;;;;;;;4452658;32;19947;-76
2022/12/25 01:58:43;;;;;;;;;;;;;;;;;;4451850;32;20264;-77
2022/12/25 02:01:09;;;;;;;;;;;;;;;;;;4451858;32;19936;-76
2022/12/25 02:03:34;;;;;;;;;;;;;;;;;;4451728;32;20261;-77
2022/12/25 02:05:59;;;;;;;;;;;;;;;;;;4450266;32;20282;-77
2022/12/25 02:08:24;;;;;;;;;;;;;;;;;;4450140;32;19979;-77
2022/12/25 02:10:49;;;;;;;;;;;;;;;;;;4451443;32;19973;-77
2022/12/25 02:13:15;;;;;;;;;;;;;;;;;;4451422;32;20367;-77
2022/12/25 02:15:40;;;;;;;;;;;;;;;;;;4451630;32;19945;-77
2022/12/25 02:18:05;;;;;;;;;;;;;;;;;;4451453;32;20262;-77
2022/12/25 02:20:30;;;;;;;;;;;;;;;;;;4451903;32;19933;-76
2022/12/25 02:22:56;;;;;;;;;;;;;;;;;;4451611;32;20267;-76
2022/12/25 02:25:21;;;;;;;;;;;;;;;;;;4451260;32;19959;-77
2022/12/25 02:27:46;;;;;;;;;;;;;;;;;;4451186;32;19949;-76
2022/12/25 02:30:11;;;;;;;;;;;;;;;;;;4451725;32;19932;-75
2022/12/25 02:32:36;;;;;;;;;;;;;;;;;;4451549;32;19936;-76
2022/12/25 02:35:01;;;;;;;;;;;;;;;;;;4450178;32;20281;-75
2022/12/25 02:37:27;;;;;;;;;;;;;;;;;;4451211;32;20305;-76
2022/12/25 02:39:58;;;;;;;;;;;;;;;;;;4450147;32;19944;-76
2022/12/25 02:42:23;;;;;;;;;;;;;;;;;;4451125;32;19984;-76
2022/12/25 03:06:44;;;;;;;;;;;;;;;;;;4455962;32;19928;-77
2022/12/25 03:11:53;;;;;;;;;;;;;;;;;;4454176;32;19968;-77
2022/12/25 03:17:02;;;;;;;;;;;;;;;;;;4455065;32;20281;-76
2022/12/25 03:27:40;;;;;;;;;;;;;;;;;;4453816;32;19939;-77
2022/12/25 03:32:49;;;;;;;;;;;;;;;;;;4454533;32;20365;-77
2022/12/25 03:35:23;;;;;;;;;;;;;;;;;;4454074;32;20294;-78
2022/12/25 03:41:20;;;;;;;;;;;;;;;;;;4454520;32;20321;-76
2022/12/25 04:38:12;;;;;;;;;;;;;;;;;;4453036;32;20322;-77
2022/12/25 04:40:38;;;;;;;;;;;;;;;;;;4453715;32;19945;-74
2022/12/25 04:43:03;;;;;;;;;;;;;;;;;;4438080;32;20344;-76
2022/12/25 04:45:28;;;;;;;;;;;;;;;;;;4452318;32;19933;-77
2022/12/25 04:47:53;;;;;;;;;;;;;;;;;;4452265;32;19951;-76
2022/12/25 04:50:18;;;;;;;;;;;;;;;;;;4452206;32;19951;-76
2022/12/25 04:52:43;;;;;;;;;;;;;;;;;;4452574;32;19956;-76
2022/12/25 04:55:08;;;;;;;;;;;;;;;;;;4438259;32;19972;-76
2022/12/25 04:57:33;;;;;;;;;;;;;;;;;;4438215;32;19941;-76
2022/12/25 04:59:58;;;;;;;;;;;;;;;;;;4452921;32;19936;-76
2022/12/25 05:02:24;;;;;;;;;;;;;;;;;;4452515;32;19979;-77
2022/12/25 05:04:49;;;;;;;;;;;;;;;;;;4452266;32;19936;-76
2022/12/25 05:07:14;;;;;;;;;;;;;;;;;;4452356;32;19948;-76
2022/12/25 05:09:40;;;;;;;;;;;;;;;;;;4452102;32;19956;-77
2022/12/25 05:12:05;;;;;;;;;;;;;;;;;;4452696;32;19999;-77
2022/12/25 05:14:30;;;;;;;;;;;;;;;;;;4451380;32;20318;-76
2022/12/25 05:16:55;;;;;;;;;;;;;;;;;;4452760;32;19955;-76
2022/12/25 05:19:21;;;;;;;;;;;;;;;;;;4452292;32;19959;-77
2022/12/25 05:21:46;;;;;;;;;;;;;;;;;;4452138;32;20294;-76
2022/12/25 05:24:11;;;;;;;;;;;;;;;;;;4453303;32;19992;-76
2022/12/25 05:26:36;;;;;;;;;;;;;;;;;;4451872;32;19955;-77
2022/12/25 05:29:01;;;;;;;;;;;;;;;;;;4452748;32;19951;-76
2022/12/25 05:31:26;;;;;;;;;;;;;;;;;;4438001;32;20009;-76
2022/12/25 05:33:51;;;;;;;;;;;;;;;;;;4452290;32;19965;-76
2022/12/25 05:36:16;;;;;;;;;;;;;;;;;;4437682;32;19936;-77
2022/12/25 05:38:41;;;;;;;;;;;;;;;;;;4452536;32;20282;-77
2022/12/25 05:41:07;;;;;;;;;;;;;;;;;;4438824;32;19949;-76
2022/12/25 05:43:32;;;;;;;;;;;;;;;;;;4457984;32;19932;-77
2022/12/25 05:45:57;;;;;;;;;;;;;;;;;;4439556;32;20369;-76
2022/12/25 05:48:22;;;;;;;;;;;;;;;;;;4451351;32;20346;-76
2022/12/25 05:50:47;;;;;;;;;;;;;;;;;;4451065;32;19969;-76
2022/12/25 05:53:12;;;;;;;;;;;;;;;;;;4450303;32;20111;-76
2022/12/25 05:55:37;;;;;;;;;;;;;;;;;;4449688;32;19936;-77
2022/12/25 05:58:02;;;;;;;;;;;;;;;;;;4452155;32;19936;-76
2022/12/25 06:00:27;;;;;;;;;;;;;;;;;;4450631;32;19976;-77
2022/12/25 06:02:53;;;;;;;;;;;;;;;;;;4450531;32;19963;-76
2022/12/25 06:05:18;;;;;;;;;;;;;;;;;;4451413;32;19992;-75
2022/12/25 06:07:43;;;;;;;;;;;;;;;;;;4437927;32;19936;-77
2022/12/25 06:10:08;;;;;;;;;;;;;;;;;;4436631;32;19937;-76
2022/12/25 06:12:33;;;;;;;;;;;;;;;;;;4451249;32;19940;-76
2022/12/25 06:14:58;;;;;;;;;;;;;;;;;;4450699;32;19944;-77
2022/12/25 06:17:23;;;;;;;;;;;;;;;;;;4436307;32;19940;-76
2022/12/25 06:19:48;;;;;;;;;;;;;;;;;;4437442;32;19936;-76
2022/12/25 06:22:13;;;;;;;;;;;;;;;;;;4436183;32;19937;-76
2022/12/25 06:24:39;;;;;;;;;;;;;;;;;;4435239;32;19936;-77
2022/12/25 06:27:04;;;;;;;;;;;;;;;;;;4452612;32;20009;-77
2022/12/25 06:29:29;;;;;;;;;;;;;;;;;;4454570;32;19940;-75
2022/12/25 06:31:56;;;;;;;;;;;;;;;;;;4454983;32;19948;-76
2022/12/25 06:34:21;;;;;;;;;;;;;;;;;;4440972;32;19928;-76
2022/12/25 06:36:46;;;;;;;;;;;;;;;;;;4455508;32;19969;-76
2022/12/25 06:39:11;;;;;;;;;;;;;;;;;;4455024;32;19945;-76
2022/12/25 06:41:36;;;;;;;;;;;;;;;;;;4440297;32;19936;-75
2022/12/25 06:44:02;;;;;;;;;;;;;;;;;;4441489;32;20331;-75
2022/12/25 06:46:27;;;;;;;;;;;;;;;;;;4454954;32;19936;-76
2022/12/25 06:48:52;;;;;;;;;;;;;;;;;;4440636;32;19940;-77
2022/12/25 06:51:17;;;;;;;;;;;;;;;;;;4454794;32;19937;-76
2022/12/25 06:53:42;;;;;;;;;;;;;;;;;;4455299;32;19989;-76
2022/12/25 06:56:07;;;;;;;;;;;;;;;;;;4455179;32;19933;-77
2022/12/25 06:58:32;;;;;;;;;;;;;;;;;;4455362;32;19950;-75
2022/12/25 07:00:57;;;;;;;;;;;;;;;;;;4457011;32;19981;-76
2022/12/25 07:03:23;;;;;;;;;;;;;;;;;;4461115;32;20302;-76
2022/12/25 07:05:48;;;;;;;;;;;;;;;;;;4460578;32;19932;-75
2022/12/25 07:08:13;;;;;;;;;;;;;;;;;;4463074;32;19950;-75
2022/12/25 07:10:38;;;;;;;;;;;;;;;;;;4449445;32;19947;-77
2022/12/25 07:13:03;;;;;;;;;;;;;;;;;;4466719;32;19940;-74
2022/12/25 07:15:28;;;;;;;;;;;;;;;;;;4465253;32;19929;-76
2022/12/25 07:17:53;;;;;;;;;;;;;;;;;;4463504;32;19959;-76
2022/12/25 07:20:18;;;;;;;;;;;;;;;;;;4455711;32;20302;-77
2022/12/25 07:22:44;;;;;;;;;;;;;;;;;;4455804;32;19937;-77
2022/12/25 07:25:09;;;;;;;;;;;;;;;;;;4455210;32;20369;-76
2022/12/25 07:27:34;;;;;;;;;;;;;;;;;;4454472;32;19967;-76
2022/12/25 07:29:59;;;;;;;;;;;;;;;;;;4454723;32;20268;-76
2022/12/25 07:32:24;;;;;;;;;;;;;;;;;;4453671;32;19960;-77
2022/12/25 07:34:49;;;;;;;;;;;;;;;;;;4453682;32;19947;-76
2022/12/25 07:37:14;;;;;;;;;;;;;;;;;;4438916;32;19940;-77
2022/12/25 07:39:39;;;;;;;;;;;;;;;;;;4454258;32;20298;-77
2022/12/25 07:42:04;;;;;;;;;;;;;;;;;;4453096;32;19972;-77
2022/12/25 07:44:32;;;;;;;;;;;;;;;;;;4453250;32;19936;-77
2022/12/25 07:46:57;;;;;;;;;;;;;;;;;;4453315;32;19951;-76
2022/12/25 07:49:22;;;;;;;;;;;;;;;;;;4440916;32;19952;-76
2022/12/25 07:51:47;;;;;;;;;;;;;;;;;;4439575;32;19941;-77
2022/12/25 07:54:12;;;;;;;;;;;;;;;;;;4439139;32;19992;-77
2022/12/25 07:56:37;;;;;;;;;;;;;;;;;;4440344;32;19977;-77
2022/12/25 07:59:03;;;;;;;;;;;;;;;;;;4439831;32;19947;-76
2022/12/25 08:01:28;;;;;;;;;;;;;;;;;;4453414;32;19936;-77
2022/12/25 08:03:53;;;;;;;;;;;;;;;;;;4453085;32;19936;-77
2022/12/25 08:06:18;;;;;;;;;;;;;;;;;;4453347;32;20347;-77
2022/12/25 08:08:43;;;;;;;;;;;;;;;;;;4453582;32;20269;-77
2022/12/25 08:11:08;;;;;;;;;;;;;;;;;;4454092;32;20336;-77
2022/12/25 08:13:33;;;;;;;;;;;;;;;;;;4453486;32;20000;-77
2022/12/25 08:15:59;;;;;;;;;;;;;;;;;;4440311;32;19987;-77
2022/12/25 08:18:24;;;;;;;;;;;;;;;;;;4438565;32;19940;-75
2022/12/25 08:20:49;;;;;;;;;;;;;;;;;;4454841;32;19999;-76
2022/12/25 08:23:14;;;;;;;;;;;;;;;;;;4453389;32;19970;-76
2022/12/25 08:25:39;;;;;;;;;;;;;;;;;;4454245;32;19991;-75
2022/12/25 08:28:04;;;;;;;;;;;;;;;;;;4452911;32;19944;-76
2022/12/25 08:30:29;;;;;;;;;;;;;;;;;;4453094;32;19950;-76
2022/12/25 08:32:54;;;;;;;;;;;;;;;;;;4438321;32;19999;-77
2022/12/25 08:35:20;;;;;;;;;;;;;;;;;;4453468;32;19976;-76
2022/12/25 08:37:45;;;;;;;;;;;;;;;;;;4438360;32;20028;-77
2022/12/25 08:40:10;;;;;;;;;;;;;;;;;;4452297;32;19947;-76
2022/12/25 08:42:35;;;;;;;;;;;;;;;;;;4438068;32;19997;-75
2022/12/25 08:45:00;;;;;;;;;;;;;;;;;;4452427;32;20064;-76
2022/12/25 08:47:25;;;;;;;;;;;;;;;;;;4452501;32;19978;-76
2022/12/25 08:49:50;;;;;;;;;;;;;;;;;;4437646;32;19937;-76
2022/12/25 08:52:15;;;;;;;;;;;;;;;;;;4452011;32;20353;-75
2022/12/25 08:54:41;;;;;;;;;;;;;;;;;;4453020;32;19989;-76
2022/12/25 08:57:06;;;;;;;;;;;;;;;;;;4438026;32;19944;-75
2022/12/25 08:59:31;;;;;;;;;;;;;;;;;;4438191;32;19989;-77
2022/12/25 09:01:56;;;;;;;;;;;;;;;;;;4452397;32;20306;-77
2022/12/25 09:04:21;;;;;;;;;;;;;;;;;;4452688;32;20336;-77
2022/12/25 09:06:46;;;;;;;;;;;;;;;;;;4451968;32;20313;-77
2022/12/25 09:09:11;;;;;;;;;;;;;;;;;;4452804;32;20298;-75
2022/12/25 09:11:36;;;;;;;;;;;;;;;;;;4451939;32;19936;-76
2022/12/25 09:14:01;;;;;;;;;;;;;;;;;;4451892;32;19937;-76
2022/12/25 09:16:26;;;;;;;;;;;;;;;;;;4453783;32;19951;-76
2022/12/25 09:18:52;;;;;;;;;;;;;;;;;;4452357;32;20242;-76
2022/12/25 09:21:17;;;;;;;;;;;;;;;;;;4437671;32;19940;-76
2022/12/25 09:23:42;;;;;;;;;;;;;;;;;;4438349;32;19991;-76
2022/12/25 09:26:07;;;;;;;;;;;;;;;;;;4451912;32;20230;-76
2022/12/25 09:28:32;;;;;;;;;;;;;;;;;;4452216;32;20301;-77
2022/12/25 09:30:57;;;;;;;;;;;;;;;;;;4451942;32;20376;-77
2022/12/25 09:33:22;;;;;;;;;;;;;;;;;;4452292;32;19993;-77
2022/12/25 09:35:47;;;;;;;;;;;;;;;;;;4453410;32;20340;-77
2022/12/25 09:38:12;;;;;;;;;;;;;;;;;;4451805;32;19948;-78
2022/12/25 09:40:37;;;;;;;;;;;;;;;;;;4438170;32;19940;-78
2022/12/25 09:43:03;;;;;;;;;;;;;;;;;;4452006;32;19947;-80
2022/12/25 09:45:28;;;;;;;;;;;;;;;;;;4437510;32;19963;-80
2022/12/25 09:47:53;;;;;;;;;;;;;;;;;;4451748;32;19933;-80
2022/12/25 09:50:19;;;;;;;;;;;;;;;;;;4453234;32;20362;-75
2022/12/25 09:52:44;;;;;;;;;;;;;;;;;;4453341;32;19968;-76
2022/12/25 09:55:09;;;;;;;;;;;;;;;;;;4452500;32;19948;-77
2022/12/25 09:57:34;;;;;;;;;;;;;;;;;;4452317;32;19940;-76
2022/12/25 09:59:59;;;;;;;;;;;;;;;;;;4453019;32;20276;-77
2022/12/25 10:02:24;;;;;;;;;;;;;;;;;;4441503;32;19971;-76
2022/12/25 10:04:49;;;;;;;;;;;;;;;;;;4456463;32;19937;-78
2022/12/25 10:07:14;;;;;;;;;;;;;;;;;;4454582;32;20300;-76
2022/12/25 10:09:39;;;;;;;;;;;;;;;;;;4455820;32;19984;-77
2022/12/25 10:12:05;;;;;;;;;;;;;;;;;;4440692;32;20350;-76
2022/12/25 10:14:30;;;;;;;;;;;;;;;;;;4442366;32;19936;-76
2022/12/25 10:16:55;;;;;;;;;;;;;;;;;;4441664;32;20254;-76
2022/12/25 10:19:20;;;;;;;;;;;;;;;;;;4456181;32;19947;-77
2022/12/25 10:21:45;;;;;;;;;;;;;;;;;;4456374;32;20265;-77
2022/12/25 10:24:10;;;;;;;;;;;;;;;;;;4454629;32;19973;-77
2022/12/25 10:26:35;;;;;;;;;;;;;;;;;;4455743;32;19986;-76
2022/12/25 10:29:00;;;;;;;;;;;;;;;;;;4461458;32;19973;-77
2022/12/25 10:31:26;;;;;;;;;;;;;;;;;;4445208;32;19975;-78
2022/12/25 10:33:51;;;;;;;;;;;;;;;;;;4445433;32;19952;-77
2022/12/25 10:36:16;;;;;;;;;;;;;;;;;;4462002;32;19937;-78
2022/12/25 10:38:41;;;;;;;;;;;;;;;;;;4444131;32;19937;-78
2022/12/25 10:41:06;;;;;;;;;;;;;;;;;;4455993;32;19969;-77
2022/12/25 10:43:32;;;;;;;;;;;;;;;;;;4454580;32;19963;-78
2022/12/25 10:45:57;;;;;;;;;;;;;;;;;;4454862;32;19929;-78
2022/12/25 10:48:22;;;;;;;;;;;;;;;;;;4454587;32;19932;-77
2022/12/25 10:50:47;;;;;;;;;;;;;;;;;;4455270;32;19970;-78
2022/12/25 10:53:12;;;;;;;;;;;;;;;;;;4455989;32;19944;-78
2022/12/25 10:55:37;;;;;;;;;;;;;;;;;;4455352;32;20249;-77
2022/12/25 10:58:02;;;;;;;;;;;;;;;;;;4455220;32;19955;-77
2022/12/25 11:00:27;;;;;;;;;;;;;;;;;;4454852;32;19940;-77
2022/12/25 11:02:53;;;;;;;;;;;;;;;;;;4460858;32;19952;-77
2022/12/25 11:05:18;;;;;;;;;;;;;;;;;;4458382;32;19943;-78
2022/12/25 11:07:52;;;;;;;;;;;;;;;;;;4441525;32;19936;-78
2022/12/25 11:10:17;;;;;;;;;;;;;;;;;;4456007;32;20292;-79
2022/12/25 11:12:42;;;;;;;;;;;;;;;;;;4454554;32;19952;-79
2022/12/25 11:15:07;;;;;;;;;;;;;;;;;;4464188;32;20314;-77
2022/12/25 11:17:33;;;;;;;;;;;;;;;;;;4449703;32;19950;-78
2022/12/25 11:19:58;;;;;;;;;;;;;;;;;;4443302;32;20235;-79
2022/12/25 11:22:23;;;;;;;;;;;;;;;;;;4454402;32;19962;-78
2022/12/25 11:24:48;;;;;;;;;;;;;;;;;;4454888;32;19963;-79
2022/12/25 11:27:13;;;;;;;;;;;;;;;;;;4454709;32;19945;-78
2022/12/25 11:29:38;;;;;;;;;;;;;;;;;;4454098;32;19966;-78
2022/12/25 11:32:03;;;;;;;;;;;;;;;;;;4454964;32;19932;-79
2022/12/25 11:34:28;;;;;;;;;;;;;;;;;;4453820;32;19937;-78
2022/12/25 11:36:53;;;;;;;;;;;;;;;;;;4454220;32;19941;-79
2022/12/25 11:39:19;;;;;;;;;;;;;;;;;;4453700;32;19948;-79
2022/12/25 11:41:44;;;;;;;;;;;;;;;;;;4454022;32;19970;-80
2022/12/25 11:44:09;;;;;;;;;;;;;;;;;;4455141;32;19981;-79
2022/12/25 11:46:34;;;;;;;;;;;;;;;;;;4454141;32;19987;-78
2022/12/25 11:48:59;;;;;;;;;;;;;;;;;;4439292;32;19956;-79
2022/12/25 11:51:24;;;;;;;;;;;;;;;;;;4454077;32;20410;-78
2022/12/25 11:53:49;;;;;;;;;;;;;;;;;;4453689;32;19936;-79
2022/12/25 11:56:14;;;;;;;;;;;;;;;;;;4440822;32;19936;-79
2022/12/25 11:58:39;;;;;;;;;;;;;;;;;;4453972;32;19993;-79
2022/12/25 12:01:05;;;;;;;;;;;;;;;;;;4453563;32;19948;-79
2022/12/25 12:03:30;;;;;;;;;;;;;;;;;;4454527;32;19933;-78
2022/12/25 12:05:55;;;;;;;;;;;;;;;;;;4440003;32;19977;-80
2022/12/25 12:08:20;;;;;;;;;;;;;;;;;;4453422;32;19989;-80
2022/12/25 12:10:46;;;;;;;;;;;;;;;;;;4453754;32;20341;-81
2022/12/25 12:13:11;;;;;;;;;;;;;;;;;;4452772;32;20017;-80
2022/12/25 12:15:36;;;;;;;;;;;;;;;;;;4453160;32;19971;-79
2022/12/25 12:18:01;;;;;;;;;;;;;;;;;;4438992;32;19955;-79
2022/12/25 12:20:26;;;;;;;;;;;;;;;;;;4454198;32;19962;-78
2022/12/25 12:22:51;;;;;;;;;;;;;;;;;;4453371;32;19936;-79
2022/12/25 12:25:16;;;;;;;;;;;;;;;;;;4453077;32;19937;-79
2022/12/25 12:27:41;;;;;;;;;;;;;;;;;;4454415;32;20040;-78
2022/12/25 12:30:06;;;;;;;;;;;;;;;;;;4453641;32;19988;-78
2022/12/25 12:32:31;;;;;;;;;;;;;;;;;;4453101;32;19955;-78
2022/12/25 12:34:57;;;;;;;;;;;;;;;;;;4439721;32;19937;-78
2022/12/25 12:37:22;;;;;;;;;;;;;;;;;;4452727;32;19988;-78
2022/12/25 12:39:47;;;;;;;;;;;;;;;;;;4453324;32;19951;-79
2022/12/25 12:42:12;;;;;;;;;;;;;;;;;;4452808;32;19948;-78
2022/12/25 12:44:37;;;;;;;;;;;;;;;;;;4438404;32;20325;-78
2022/12/25 12:47:02;;;;;;;;;;;;;;;;;;4453266;32;20011;-78
2022/12/25 12:49:27;;;;;;;;;;;;;;;;;;4452457;32;19947;-79
2022/12/25 12:51:52;;;;;;;;;;;;;;;;;;4453660;32;19996;-80
2022/12/25 12:54:19;;;;;;;;;;;;;;;;;;4454679;32;19948;-79
2022/12/25 12:56:44;;;;;;;;;;;;;;;;;;4452359;32;19936;-79
2022/12/25 12:59:10;;;;;;;;;;;;;;;;;;4453587;32;19963;-79
2022/12/25 13:01:35;;;;;;;;;;;;;;;;;;4452733;32;19972;-78
2022/12/25 13:04:00;;;;;;;;;;;;;;;;;;4452164;32;20044;-77
2022/12/25 13:06:25;;;;;;;;;;;;;;;;;;4452055;32;19968;-77
2022/12/25 13:08:50;;;;;;;;;;;;;;;;;;4453600;32;19941;-78
2022/12/25 13:11:15;;;;;;;;;;;;;;;;;;4452297;32;19976;-77
2022/12/25 13:13:41;;;;;;;;;;;;;;;;;;4452356;32;20265;-78
2022/12/25 13:16:06;;;;;;;;;;;;;;;;;;4452089;32;20332;-78
2022/12/25 13:18:31;;;;;;;;;;;;;;;;;;4437469;32;19956;-79
2022/12/25 13:20:56;;;;;;;;;;;;;;;;;;4452233;32;19986;-78
2022/12/25 13:23:22;;;;;;;;;;;;;;;;;;4451593;32;19937;-77
2022/12/25 13:25:47;;;;;;;;;;;;;;;;;;4451814;32;20001;-78
2022/12/25 13:28:12;;;;;;;;;;;;;;;;;;4451950;32;19952;-77
2022/12/25 13:30:37;;;;;;;;;;;;;;;;;;4437590;32;20314;-77
2022/12/25 13:33:02;;;;;;;;;;;;;;;;;;4453220;32;19932;-77
2022/12/25 13:35:27;;;;;;;;;;;;;;;;;;4452405;32;19945;-76
2022/12/25 13:37:52;;;;;;;;;;;;;;;;;;4437787;32;19976;-76
2022/12/25 13:40:17;;;;;;;;;;;;;;;;;;4453303;32;19948;-77
2022/12/25 13:42:42;;;;;;;;;;;;;;;;;;4453698;32;19967;-75
2022/12/25 13:45:08;;;;;;;;;;;;;;;;;;4451754;32;19936;-76
2022/12/25 13:47:33;;;;;;;;;;;;;;;;;;4437754;32;20362;-75
2022/12/25 13:49:58;;;;;;;;;;;;;;;;;;4453339;32;19932;-76
2022/12/25 13:52:24;;;;;;;;;;;;;;;;;;4437668;32;19940;-75
2022/12/25 13:54:49;;;;;;;;;;;;;;;;;;4452588;32;20326;-76
2022/12/25 13:57:14;;;;;;;;;;;;;;;;;;4453030;32;19936;-74
2022/12/25 13:59:39;;;;;;;;;;;;;;;;;;4454287;32;19947;-75
2022/12/25 14:02:04;;;;;;;;;;;;;;;;;;4451761;32;19985;-75
2022/12/25 14:04:29;;;;;;;;;;;;;;;;;;4453330;32;19972;-74
2022/12/25 14:06:55;;;;;;;;;;;;;;;;;;4451289;32;20296;-74
2022/12/25 14:09:20;;;;;;;;;;;;;;;;;;4438852;32;19937;-73
2022/12/25 14:11:45;;;;;;;;;;;;;;;;;;4451283;32;19960;-73
2022/12/25 14:14:10;;;;;;;;;;;;;;;;;;4436868;32;19952;-74
2022/12/25 14:16:35;;;;;;;;;;;;;;;;;;4452294;32;20023;-75
2022/12/25 14:19:00;;;;;;;;;;;;;;;;;;4451590;32;20303;-75
2022/12/25 14:21:25;;;;;;;;;;;;;;;;;;4453196;32;19972;-75
2022/12/25 14:23:51;;;;;;;;;;;;;;;;;;4451826;32;19933;-73
2022/12/25 14:26:16;;;;;;;;;;;;;;;;;;4453013;32;19933;-74
2022/12/25 14:28:41;;;;;;;;;;;;;;;;;;4453323;32;20071;-74
2022/12/25 14:31:06;;;;;;;;;;;;;;;;;;4451613;32;19976;-73
2022/12/25 14:33:31;;;;;;;;;;;;;;;;;;4453082;32;19932;-74
2022/12/25 14:35:56;;;;;;;;;;;;;;;;;;4451558;32;20334;-74
2022/12/25 14:38:21;;;;;;;;;;;;;;;;;;4437478;32;19940;-74
2022/12/25 14:40:46;;;;;;;;;;;;;;;;;;4439332;32;19996;-75
2022/12/25 14:43:12;;;;;;;;;;;;;;;;;;4453612;32;19941;-75
2022/12/25 14:45:40;;;;;;;;;;;;;;;;;;4452228;32;19967;-75
2022/12/25 14:48:05;;;;;;;;;;;;;;;;;;4455621;32;20314;-75
2022/12/25 14:50:30;;;;;;;;;;;;;;;;;;4455696;32;19932;-75
2022/12/25 14:52:55;;;;;;;;;;;;;;;;;;4455436;32;19948;-75
2022/12/25 14:55:20;;;;;;;;;;;;;;;;;;4454072;32;20292;-74
2022/12/25 14:57:45;;;;;;;;;;;;;;;;;;4454420;32;19940;-75
2022/12/25 15:00:11;;;;;;;;;;;;;;;;;;4456647;32;19933;-74
2022/12/25 15:02:36;;;;;;;;;;;;;;;;;;4439806;32;20369;-75
2022/12/25 15:05:01;;;;;;;;;;;;;;;;;;4453764;32;19943;-74
2022/12/25 15:07:26;;;;;;;;;;;;;;;;;;4453936;32;19971;-74
2022/12/25 15:09:51;;;;;;;;;;;;;;;;;;4455540;32;19951;-76
2022/12/25 15:12:16;;;;;;;;;;;;;;;;;;4454916;32;19958;-73
2022/12/25 15:14:41;;;;;;;;;;;;;;;;;;4454341;32;19944;-74
2022/12/25 15:17:06;;;;;;;;;;;;;;;;;;4453891;32;20363;-75
2022/12/25 15:19:33;;;;;;;;;;;;;;;;;;4453788;32;20306;-74
2022/12/25 15:21:58;;;;;;;;;;;;;;;;;;4440512;32;20220;-74
2022/12/25 15:24:23;;;;;;;;;;;;;;;;;;4454893;32;20392;-74
2022/12/25 15:26:48;;;;;;;;;;;;;;;;;;4439700;32;20253;-74
2022/12/25 15:29:13;;;;;;;;;;;;;;;;;;4440763;32;19932;-74
2022/12/25 15:31:39;;;;;;;;;;;;;;;;;;4455109;32;19967;-74
2022/12/25 15:34:04;;;;;;;;;;;;;;;;;;4439014;32;19936;-74
2022/12/25 15:36:29;;;;;;;;;;;;;;;;;;4453970;32;19937;-74
2022/12/25 15:38:54;;;;;;;;;;;;;;;;;;4439102;32;19945;-75
2022/12/25 15:44:03;;;;;;;;;;;;;;;;;;4454448;32;20354;-76
2022/12/25 15:46:28;;;;;;;;;;;;;;;;;;4438993;32;20361;-77
2022/12/25 15:48:53;;;;;;;;;;;;;;;;;;4453194;32;19993;-76
2022/12/25 15:51:19;;;;;;;;;;;;;;;;;;4453070;32;20012;-77
2022/12/25 15:53:44;;;;;;;;;;;;;;;;;;4453087;32;19985;-75
2022/12/25 15:56:09;;;;;;;;;;;;;;;;;;4439035;32;20284;-76
2022/12/25 15:58:34;;;;;;;;;;;;;;;;;;4452456;32;19948;-76
2022/12/25 16:00:59;;;;;;;;;;;;;;;;;;4453316;32;19976;-78
2022/12/25 16:03:24;;;;;;;;;;;;;;;;;;4454288;32;20004;-77
2022/12/25 16:05:49;;;;;;;;;;;;;;;;;;4454594;32;19951;-78
2022/12/25 16:08:14;;;;;;;;;;;;;;;;;;4452614;32;19932;-76
2022/12/25 16:10:39;;;;;;;;;;;;;;;;;;4452926;32;19988;-74
2022/12/25 16:13:05;;;;;;;;;;;;;;;;;;4454419;32;19932;-74
2022/12/25 16:15:30;;;;;;;;;;;;;;;;;;4453099;32;19940;-75
2022/12/25 16:17:55;;;;;;;;;;;;;;;;;;4455209;32;20103;-74
2022/12/25 16:20:20;;;;;;;;;;;;;;;;;;4455588;32;19947;-75
2022/12/25 16:22:45;;;;;;;;;;;;;;;;;;4453645;32;20227;-74
2022/12/25 16:25:11;;;;;;;;;;;;;;;;;;4454422;32;19933;-75
2022/12/25 16:27:36;;;;;;;;;;;;;;;;;;4438844;32;19941;-75
2022/12/25 16:30:01;;;;;;;;;;;;;;;;;;4452197;32;20273;-76
2022/12/25 16:32:28;;;;;;;;;;;;;;;;;;4454135;32;20054;-76
2022/12/25 16:34:53;;;;;;;;;;;;;;;;;;4452688;32;19967;-76
2022/12/25 16:37:18;;;;;;;;;;;;;;;;;;4452495;32;19941;-76
2022/12/25 16:39:43;;;;;;;;;;;;;;;;;;4454299;32;19933;-76
2022/12/25 16:42:08;;;;;;;;;;;;;;;;;;4452362;32;19933;-76
2022/12/25 16:44:33;;;;;;;;;;;;;;;;;;4452713;32;20362;-76
2022/12/25 16:46:58;;;;;;;;;;;;;;;;;;4452071;32;19932;-77
2022/12/25 16:49:23;;;;;;;;;;;;;;;;;;4452393;32;19949;-76
2022/12/25 16:51:48;;;;;;;;;;;;;;;;;;4453332;32;19970;-77
2022/12/25 16:54:13;;;;;;;;;;;;;;;;;;4452251;32;19933;-77
2022/12/25 16:56:39;;;;;;;;;;;;;;;;;;4438340;32;20356;-77
2022/12/25 16:59:04;;;;;;;;;;;;;;;;;;4439810;32;19932;-76
2022/12/25 17:01:29;;;;;;;;;;;;;;;;;;4452877;32;20306;-76
2022/12/25 17:03:54;;;;;;;;;;;;;;;;;;4451994;32;20312;-77
2022/12/25 17:06:19;;;;;;;;;;;;;;;;;;4453922;32;19955;-76
2022/12/25 17:08:44;;;;;;;;;;;;;;;;;;4452396;32;20029;-76
2022/12/25 17:11:10;;;;;;;;;;;;;;;;;;4455552;32;19940;-76
2022/12/25 17:13:35;;;;;;;;;;;;;;;;;;4454287;32;19955;-78
2022/12/25 17:16:00;;;;;;;;;;;;;;;;;;4454607;32;19944;-76
2022/12/25 17:18:25;;;;;;;;;;;;;;;;;;4439880;32;19945;-78
2022/12/25 17:20:50;;;;;;;;;;;;;;;;;;4454226;32;20346;-77
2022/12/25 17:23:15;;;;;;;;;;;;;;;;;;4452082;32;19964;-77
2022/12/25 17:25:40;;;;;;;;;;;;;;;;;;4437995;32;19951;-77
2022/12/25 17:28:05;;;;;;;;;;;;;;;;;;4452392;32;20345;-77
2022/12/25 17:30:31;;;;;;;;;;;;;;;;;;4452128;32;20317;-78
2022/12/25 17:32:56;;;;;;;;;;;;;;;;;;4452991;32;19992;-78
2022/12/25 17:35:22;;;;;;;;;;;;;;;;;;4452678;32;20324;-79
2022/12/25 17:37:47;;;;;;;;;;;;;;;;;;4438332;32;19932;-78
2022/12/25 17:40:12;;;;;;;;;;;;;;;;;;4454880;32;20279;-78
2022/12/25 17:42:37;;;;;;;;;;;;;;;;;;4452957;32;20009;-77
2022/12/25 17:45:02;;;;;;;;;;;;;;;;;;4452586;32;19932;-76
2022/12/25 17:47:28;;;;;;;;;;;;;;;;;;4453264;32;19951;-76
2022/12/25 17:49:53;;;;;;;;;;;;;;;;;;4452022;32;19946;-77
2022/12/25 17:52:18;;;;;;;;;;;;;;;;;;4451937;32;19933;-77
2022/12/25 17:54:43;;;;;;;;;;;;;;;;;;4453137;32;20265;-77
2022/12/25 17:57:08;;;;;;;;;;;;;;;;;;4453219;32;19936;-77
2022/12/25 17:59:33;;;;;;;;;;;;;;;;;;4453413;32;19996;-77
2022/12/25 18:01:58;;;;;;;;;;;;;;;;;;4453816;32;19932;-79
2022/12/25 18:04:23;;;;;;;;;;;;;;;;;;4437889;32;19937;-79
2022/12/25 18:06:48;;;;;;;;;;;;;;;;;;4452340;32;19937;-78
2022/12/25 18:09:14;;;;;;;;;;;;;;;;;;4452233;32;19971;-78
2022/12/25 18:11:39;;;;;;;;;;;;;;;;;;4453041;32;20269;-78